createdAt,value
2022-10-08T00:00:16.748Z,9.747416
2022-10-08T00:01:16.730Z,9.747405
2022-10-08T00:02:17.855Z,9.747410
2022-10-08T00:03:16.730Z,9.747381
2022-10-08T00:04:16.777Z,9.747345
2022-10-08T00:05:16.720Z,9.747380
2022-10-08T00:06:16.699Z,9.747364
2022-10-08T00:07:16.716Z,9.747312
2022-10-08T00:08:16.676Z,9.747251
2022-10-08T00:09:17.679Z,9.747236
2022-10-08T00:10:16.673Z,9.747340
2022-10-08T00:11:16.662Z,9.747405
2022-10-08T00:12:16.686Z,9.747355
2022-10-08T00:13:16.650Z,9.747362
2022-10-08T00:14:16.633Z,9.747426
2022-10-08T00:15:16.630Z,9.747443
2022-10-08T00:16:16.669Z,9.747430
2022-10-08T00:17:17.645Z,9.747426
2022-10-08T00:18:16.611Z,9.747431
2022-10-08T00:19:16.618Z,9.747383
2022-10-08T00:20:16.593Z,9.747418
2022-10-08T00:21:16.619Z,9.747383
2022-10-08T00:22:16.603Z,9.747314
2022-10-08T00:23:16.576Z,9.747362
2022-10-08T00:24:16.574Z,9.747378
2022-10-08T00:25:16.569Z,9.747351
2022-10-08T00:26:16.542Z,9.747510
2022-10-08T00:27:16.578Z,9.747356
2022-10-08T00:28:16.552Z,9.747445
2022-10-08T00:29:16.535Z,9.747520
2022-10-08T00:30:16.525Z,9.747392
2022-10-08T00:31:16.575Z,9.747495
2022-10-08T00:32:16.532Z,9.747510
2022-10-08T00:33:16.512Z,9.747397
2022-10-08T00:34:16.501Z,9.747422
2022-10-08T00:35:16.490Z,9.747388
2022-10-08T00:36:16.478Z,9.747411
2022-10-08T00:37:16.506Z,9.747424
2022-10-08T00:38:16.464Z,9.747437
2022-10-08T00:39:16.454Z,9.747428
2022-10-08T00:40:16.465Z,9.747414
2022-10-08T00:41:16.440Z,9.747327
2022-10-08T00:42:16.455Z,9.747343
2022-10-08T00:43:16.423Z,9.747336
2022-10-08T00:44:16.419Z,9.747396
2022-10-08T00:45:16.406Z,9.747435
2022-10-08T00:46:16.445Z,9.747311
2022-10-08T00:47:16.425Z,9.747263
2022-10-08T00:48:16.386Z,9.747342
2022-10-08T00:49:16.380Z,9.747296
2022-10-08T00:50:16.386Z,9.747473
2022-10-08T00:51:16.370Z,9.747424
2022-10-08T00:52:16.380Z,9.747467
2022-10-08T00:53:16.341Z,9.747377
2022-10-08T00:54:16.338Z,9.747296
2022-10-08T00:55:16.324Z,9.747330
2022-10-08T00:56:16.319Z,9.747354
2022-10-08T00:57:16.350Z,9.747387
2022-10-08T00:58:16.302Z,9.747312
2022-10-08T00:59:16.294Z,9.747285
2022-10-08T01:00:16.286Z,9.747413
2022-10-08T01:01:16.363Z,9.747391
2022-10-08T01:02:16.353Z,9.747357
2022-10-08T01:03:16.265Z,9.747346
2022-10-08T01:04:16.261Z,9.747408
2022-10-08T01:05:16.252Z,9.747431
2022-10-08T01:06:16.235Z,9.747373
2022-10-08T01:07:17.267Z,9.747487
2022-10-08T01:08:16.226Z,9.747439
2022-10-08T01:09:19.081Z,9.747375
2022-10-08T01:10:17.206Z,9.747239
2022-10-08T01:11:16.202Z,9.747374
2022-10-08T01:12:16.195Z,9.747428
2022-10-08T01:13:16.218Z,9.747487
2022-10-08T01:14:16.176Z,9.747334
2022-10-08T01:15:16.184Z,9.747445
2022-10-08T01:16:16.201Z,9.747412
2022-10-08T01:17:16.149Z,9.747423
2022-10-08T01:18:16.173Z,9.747355
2022-10-08T01:19:16.140Z,9.747272
2022-10-08T01:20:16.133Z,9.747419
2022-10-08T01:21:16.117Z,9.747332
2022-10-08T01:22:16.111Z,9.747422
2022-10-08T01:23:16.137Z,9.747378
2022-10-08T01:24:16.094Z,9.747295
2022-10-08T01:25:16.101Z,9.747554
2022-10-08T01:26:16.087Z,9.747396
2022-10-08T01:27:16.077Z,9.747141
2022-10-08T01:28:16.160Z,9.747293
2022-10-08T01:29:16.066Z,9.747368
2022-10-08T01:30:16.086Z,9.747329
2022-10-08T01:31:16.114Z,9.747411
2022-10-08T01:32:16.039Z,9.747237
2022-10-08T01:33:16.059Z,9.747219
2022-10-08T01:34:16.028Z,9.747507
2022-10-08T01:35:16.018Z,9.747556
2022-10-08T01:36:16.013Z,9.747407
2022-10-08T01:37:16.011Z,9.747412
2022-10-08T01:38:16.020Z,9.747378
2022-10-08T01:39:15.990Z,9.747104
2022-10-08T01:40:15.977Z,9.747316
2022-10-08T01:41:15.963Z,9.747414
2022-10-08T01:42:15.960Z,9.747450
2022-10-08T01:43:15.978Z,9.747198
2022-10-08T01:44:15.991Z,9.747195
2022-10-08T01:45:15.943Z,9.747351
2022-10-08T01:46:16.015Z,9.747290
2022-10-08T01:47:15.922Z,9.747198
2022-10-08T01:48:15.941Z,9.747314
2022-10-08T01:49:15.906Z,9.747260
2022-10-08T01:50:15.891Z,9.747341
2022-10-08T01:51:15.894Z,9.747184
2022-10-08T01:52:15.885Z,9.747258
2022-10-08T01:53:15.908Z,9.747269
2022-10-08T01:54:15.866Z,9.747280
2022-10-08T01:55:15.871Z,9.747280
2022-10-08T01:56:15.853Z,9.747228
2022-10-08T01:57:15.839Z,9.747232
2022-10-08T01:58:15.855Z,9.747220
2022-10-08T01:59:15.825Z,9.747204
2022-10-08T02:00:15.823Z,9.747300
2022-10-08T02:01:15.852Z,9.747455
2022-10-08T02:02:15.868Z,9.747339
2022-10-08T02:03:15.816Z,9.747313
2022-10-08T02:04:15.797Z,9.747226
2022-10-08T02:05:15.777Z,9.747291
2022-10-08T02:06:15.777Z,9.747392
2022-10-08T02:07:15.760Z,9.747445
2022-10-08T02:08:15.781Z,9.747389
2022-10-08T02:09:15.744Z,9.747375
2022-10-08T02:10:15.744Z,9.747453
2022-10-08T02:11:15.739Z,9.747450
2022-10-08T02:12:15.721Z,9.747520
2022-10-08T02:13:15.750Z,9.747484
2022-10-08T02:14:15.721Z,9.747324
2022-10-08T02:15:15.699Z,9.747416
2022-10-08T02:16:15.713Z,9.747499
2022-10-08T02:17:15.683Z,9.747427
2022-10-08T02:18:15.703Z,9.747334
2022-10-08T02:19:15.672Z,9.747310
2022-10-08T02:20:15.659Z,9.747448
2022-10-08T02:21:15.659Z,9.747290
2022-10-08T02:22:15.646Z,9.747353
2022-10-08T02:23:15.664Z,9.747240
2022-10-08T02:24:15.633Z,9.747474
2022-10-08T02:25:15.622Z,9.747194
2022-10-08T02:26:15.618Z,9.747375
2022-10-08T02:27:15.606Z,9.747247
2022-10-08T02:28:15.684Z,9.747382
2022-10-08T02:29:15.591Z,9.747378
2022-10-08T02:30:15.585Z,9.747370
2022-10-08T02:31:15.642Z,9.747418
2022-10-08T02:32:15.569Z,9.747477
2022-10-08T02:33:15.587Z,9.747410
2022-10-08T02:34:15.552Z,9.747435
2022-10-08T02:35:15.541Z,9.747432
2022-10-08T02:36:15.537Z,9.747420
2022-10-08T02:37:15.534Z,9.747372
2022-10-08T02:38:15.556Z,9.747424
2022-10-08T02:39:15.521Z,9.747413
2022-10-08T02:40:15.509Z,9.747387
2022-10-08T02:41:15.503Z,9.747298
2022-10-08T02:42:15.498Z,9.747429
2022-10-08T02:43:15.514Z,9.747437
2022-10-08T02:44:15.481Z,9.747346
2022-10-08T02:45:15.472Z,9.747415
2022-10-08T02:46:15.521Z,9.747416
2022-10-08T02:47:15.454Z,9.747382
2022-10-08T02:48:15.476Z,9.747437
2022-10-08T02:49:15.450Z,9.747410
2022-10-08T02:50:15.434Z,9.747465
2022-10-08T02:51:15.423Z,9.747524
2022-10-08T02:52:15.418Z,9.747474
2022-10-08T02:53:15.414Z,9.747453
2022-10-08T02:54:15.441Z,9.747422
2022-10-08T02:55:15.390Z,9.747450
2022-10-08T02:56:15.386Z,9.747426
2022-10-08T02:57:15.380Z,9.747458
2022-10-08T02:58:15.372Z,9.747399
2022-10-08T02:59:15.401Z,9.747437
2022-10-08T03:00:15.362Z,9.747410
2022-10-08T03:01:15.421Z,9.747422
2022-10-08T03:02:15.392Z,9.747439
2022-10-08T03:03:15.333Z,9.747477
2022-10-08T03:04:15.351Z,9.747402
2022-10-08T03:05:15.325Z,9.747482
2022-10-08T03:06:15.316Z,9.747437
2022-10-08T03:07:15.312Z,9.747400
2022-10-08T03:08:15.300Z,9.747409
2022-10-08T03:09:15.318Z,9.747384
2022-10-08T03:10:15.286Z,9.747440
2022-10-08T03:11:15.280Z,9.747450
2022-10-08T03:12:15.264Z,9.747407
2022-10-08T03:13:15.261Z,9.747369
2022-10-08T03:14:15.283Z,9.747417
2022-10-08T03:15:15.244Z,9.747384
2022-10-08T03:16:15.274Z,9.747439
2022-10-08T03:17:15.240Z,9.747385
2022-10-08T03:18:15.226Z,9.747481
2022-10-08T03:19:15.239Z,9.747495
2022-10-08T03:20:15.212Z,9.747464
2022-10-08T03:21:15.201Z,9.747466
2022-10-08T03:22:15.193Z,9.747425
2022-10-08T03:23:15.188Z,9.747445
2022-10-08T03:24:15.217Z,9.747528
2022-10-08T03:25:15.172Z,9.747505
2022-10-08T03:26:15.168Z,9.747432
2022-10-08T03:27:15.145Z,9.747447
2022-10-08T03:28:16.219Z,9.747465
2022-10-08T03:29:15.143Z,9.747417
2022-10-08T03:30:15.136Z,9.747392
2022-10-08T03:31:15.194Z,9.747466
2022-10-08T03:32:15.120Z,9.747625
2022-10-08T03:33:15.143Z,9.747630
2022-10-08T03:34:15.101Z,9.747540
2022-10-08T03:35:15.088Z,9.747292
2022-10-08T03:36:15.088Z,9.747346
2022-10-08T03:37:15.076Z,9.747419
2022-10-08T03:38:15.102Z,9.747429
2022-10-08T03:39:15.062Z,9.747437
2022-10-08T03:40:15.062Z,9.747485
2022-10-08T03:41:15.048Z,9.747522
2022-10-08T03:42:15.040Z,9.747508
2022-10-08T03:43:15.066Z,9.747447
2022-10-08T03:44:15.017Z,9.747439
2022-10-08T03:45:15.017Z,9.747388
2022-10-08T03:46:15.041Z,9.747459
2022-10-08T03:47:15.002Z,9.747533
2022-10-08T03:48:15.000Z,9.747486
2022-10-08T03:49:15.014Z,9.747580
2022-10-08T03:50:14.978Z,9.747516
2022-10-08T03:51:14.973Z,9.747436
2022-10-08T03:52:14.999Z,9.747468
2022-10-08T03:53:14.955Z,9.747472
2022-10-08T03:54:14.979Z,9.747434
2022-10-08T03:55:14.938Z,9.747424
2022-10-08T03:56:14.930Z,9.747392
2022-10-08T03:57:14.921Z,9.747392
2022-10-08T03:58:14.913Z,9.747378
2022-10-08T03:59:14.930Z,9.747254
2022-10-08T04:00:14.917Z,9.747283
2022-10-08T04:01:14.939Z,9.747357
2022-10-08T04:08:49.585Z,9.747015
2022-10-08T04:09:49.563Z,9.746677
2022-10-08T04:10:49.550Z,9.746547
2022-10-08T04:11:49.549Z,9.745899
2022-10-08T04:12:49.878Z,9.747245
2022-10-08T04:13:49.558Z,9.747415
2022-10-08T04:14:49.513Z,9.747440
2022-10-08T04:15:49.550Z,9.747430
2022-10-08T04:16:49.505Z,9.747273
2022-10-08T04:17:49.500Z,9.747331
2022-10-08T04:18:49.570Z,9.747344
2022-10-08T04:19:49.478Z,9.747365
2022-10-08T04:20:49.479Z,9.747497
2022-10-08T04:21:49.487Z,9.747486
2022-10-08T04:22:49.792Z,9.747382
2022-10-08T04:23:49.478Z,9.747499
2022-10-08T04:24:49.439Z,9.747368
2022-10-08T04:25:49.440Z,9.747459
2022-10-08T04:26:49.434Z,9.747532
2022-10-08T04:27:49.425Z,9.747398
2022-10-08T04:28:49.520Z,9.747447
2022-10-08T04:29:49.402Z,9.747473
2022-10-08T04:30:49.448Z,9.747554
2022-10-08T04:31:49.390Z,9.747453
2022-10-08T04:32:49.597Z,9.747567
2022-10-08T04:33:49.399Z,9.747540
2022-10-08T04:34:49.370Z,9.747445
2022-10-08T04:35:49.357Z,9.747536
2022-10-08T04:36:49.353Z,9.747552
2022-10-08T04:37:49.338Z,9.747682
2022-10-08T04:38:49.369Z,9.747553
2022-10-08T04:39:49.334Z,9.747500
2022-10-08T04:40:49.314Z,9.747548
2022-10-08T04:41:49.317Z,9.747559
2022-10-08T04:42:49.591Z,9.747455
2022-10-08T04:43:49.336Z,9.747422
2022-10-08T04:44:49.289Z,9.747402
2022-10-08T04:45:49.276Z,9.747420
2022-10-08T04:46:49.341Z,9.747446
2022-10-08T04:47:49.251Z,9.747470
2022-10-08T04:48:49.291Z,9.747558
2022-10-08T04:49:49.242Z,9.747446
2022-10-08T04:50:49.261Z,9.747565
2022-10-08T04:51:49.223Z,9.747479
2022-10-08T04:52:49.515Z,9.747515
2022-10-08T04:53:49.233Z,9.747426
2022-10-08T04:54:49.235Z,9.747320
2022-10-08T04:55:49.194Z,9.747442
2022-10-08T04:56:49.207Z,9.747444
2022-10-08T04:57:49.190Z,9.747384
2022-10-08T04:58:49.179Z,9.747403
2022-10-08T05:00:13.228Z,9.747362
2022-10-08T05:00:51.164Z,9.747484
2022-10-08T05:01:49.192Z,9.747555
2022-10-08T05:02:49.596Z,9.747470
2022-10-08T05:03:49.137Z,9.747492
2022-10-08T05:04:49.159Z,9.747418
2022-10-08T05:05:49.138Z,9.747475
2022-10-08T05:06:49.114Z,9.747456
2022-10-08T05:07:49.103Z,9.747413
2022-10-08T05:08:49.103Z,9.747448
2022-10-08T05:09:49.115Z,9.747330
2022-10-08T05:10:49.080Z,9.747391
2022-10-08T05:11:49.070Z,9.747448
2022-10-08T05:12:49.216Z,9.747394
2022-10-08T05:13:49.043Z,9.747359
2022-10-08T05:14:50.117Z,9.747455
2022-10-08T05:15:49.046Z,9.747461
2022-10-08T05:16:49.055Z,9.747449
2022-10-08T05:17:49.037Z,9.747411
2022-10-08T05:18:49.027Z,9.747414
2022-10-08T05:19:49.038Z,9.747520
2022-10-08T05:20:49.063Z,9.747489
2022-10-08T05:21:48.997Z,9.747388
2022-10-08T05:22:49.365Z,9.747336
2022-10-08T05:23:48.979Z,9.747344
2022-10-08T05:24:49.003Z,9.747415
2022-10-08T05:25:48.981Z,9.747473
2022-10-08T05:27:04.208Z,9.747396
2022-10-08T05:27:51.033Z,9.747435
2022-10-08T05:28:48.936Z,9.747363
2022-10-08T05:29:49.957Z,9.747402
2022-10-08T05:30:48.967Z,9.747414
2022-10-08T05:31:48.931Z,9.747439
2022-10-08T05:32:49.565Z,9.747584
2022-10-08T05:33:48.930Z,9.747572
2022-10-08T05:34:48.934Z,9.747471
2022-10-08T05:35:48.886Z,9.747396
2022-10-08T05:36:48.878Z,9.747343
2022-10-08T05:37:48.864Z,9.747423
2022-10-08T05:38:48.861Z,9.747463
2022-10-08T05:39:48.889Z,9.747373
2022-10-08T05:40:48.843Z,9.747468
2022-10-08T05:41:48.842Z,9.747471
2022-10-08T05:42:49.219Z,9.747395
2022-10-08T05:43:48.819Z,9.747428
2022-10-08T05:44:48.839Z,9.747364
2022-10-08T05:45:48.803Z,9.747436
2022-10-08T05:46:48.867Z,9.747349
2022-10-08T05:47:48.787Z,9.747404
2022-10-08T05:48:48.786Z,9.747387
2022-10-08T05:49:48.805Z,9.747418
2022-10-08T05:50:48.773Z,9.747388
2022-10-08T05:51:48.765Z,9.747436
2022-10-08T05:52:49.395Z,9.747414
2022-10-08T05:53:48.743Z,9.747441
2022-10-08T05:54:48.763Z,9.747395
2022-10-08T05:55:48.728Z,9.747489
2022-10-08T05:56:48.727Z,9.747409
2022-10-08T05:57:48.715Z,9.747492
2022-10-08T05:58:48.720Z,9.747496
2022-10-08T05:59:48.734Z,9.747428
2022-10-08T06:00:48.727Z,9.747511
2022-10-08T06:01:48.688Z,9.747514
2022-10-08T06:02:49.075Z,9.747473
2022-10-08T06:03:48.676Z,9.747506
2022-10-08T06:04:48.722Z,9.747396
2022-10-08T06:05:48.682Z,9.747437
2022-10-08T06:06:48.654Z,9.747447
2022-10-08T06:07:48.647Z,9.747522
2022-10-08T06:08:48.629Z,9.747533
2022-10-08T06:09:48.659Z,9.747542
2022-10-08T06:10:48.623Z,9.747492
2022-10-08T06:11:48.623Z,9.747439
2022-10-08T06:12:48.930Z,9.747467
2022-10-08T06:13:48.643Z,9.747468
2022-10-08T06:14:48.616Z,9.747458
2022-10-08T06:15:48.672Z,9.747446
2022-10-08T06:16:48.603Z,9.747512
2022-10-08T06:17:48.601Z,9.747493
2022-10-08T06:18:48.564Z,9.747500
2022-10-08T06:19:48.621Z,9.747453
2022-10-08T06:20:48.536Z,9.747498
2022-10-08T06:21:48.534Z,9.747439
2022-10-08T06:22:48.986Z,9.747409
2022-10-08T06:23:48.518Z,9.747365
2022-10-08T06:24:48.545Z,9.747453
2022-10-08T06:25:48.498Z,9.747465
2022-10-08T06:26:48.491Z,9.747483
2022-10-08T06:27:48.482Z,9.747438
2022-10-08T06:28:48.601Z,9.747404
2022-10-08T06:29:48.501Z,9.747411
2022-10-08T06:30:48.508Z,9.747474
2022-10-08T06:31:48.492Z,9.747493
2022-10-08T06:32:48.689Z,9.747495
2022-10-08T06:33:48.441Z,9.747495
2022-10-08T06:34:48.465Z,9.747485
2022-10-08T06:35:48.433Z,9.747537
2022-10-08T06:36:48.450Z,9.747538
2022-10-08T06:37:48.408Z,9.747512
2022-10-08T06:38:48.399Z,9.747512
2022-10-08T06:39:48.683Z,9.747499
2022-10-08T06:40:49.437Z,9.747518
2022-10-08T06:41:48.400Z,9.747507
2022-10-08T06:42:48.873Z,9.747517
2022-10-08T06:43:48.371Z,9.747467
2022-10-08T06:44:48.392Z,9.747479
2022-10-08T06:45:48.352Z,9.747510
2022-10-08T06:46:48.448Z,9.747400
2022-10-08T06:47:48.341Z,9.747373
2022-10-08T06:48:48.326Z,9.747359
2022-10-08T06:49:48.328Z,9.747319
2022-10-08T06:50:48.342Z,9.747396
2022-10-08T06:51:49.305Z,9.747463
2022-10-08T06:52:48.978Z,9.747399
2022-10-08T06:53:48.283Z,9.747428
2022-10-08T06:54:48.311Z,9.747371
2022-10-08T06:55:48.275Z,9.747434
2022-10-08T06:56:48.261Z,9.747472
2022-10-08T06:57:48.262Z,9.747458
2022-10-08T06:58:48.243Z,9.747412
2022-10-08T06:59:48.246Z,9.747348
2022-10-08T07:00:48.323Z,9.747299
2022-10-08T07:01:48.277Z,9.747440
2022-10-08T07:02:48.473Z,9.747459
2022-10-08T07:03:49.209Z,9.747495
2022-10-08T07:04:48.203Z,9.747380
2022-10-08T07:05:48.228Z,9.747366
2022-10-08T07:06:48.182Z,9.747319
2022-10-08T07:07:48.187Z,9.747441
2022-10-08T07:08:48.173Z,9.747425
2022-10-08T07:09:48.161Z,9.747434
2022-10-08T07:10:48.175Z,9.747351
2022-10-08T07:11:48.147Z,9.747536
2022-10-08T07:12:48.490Z,9.747427
2022-10-08T07:13:48.138Z,9.747489
2022-10-08T07:14:48.128Z,9.747337
2022-10-08T07:15:48.147Z,9.747381
2022-10-08T07:16:48.145Z,9.747351
2022-10-08T07:17:48.107Z,9.747349
2022-10-08T07:18:48.097Z,9.747621
2022-10-08T07:19:48.093Z,9.747934
2022-10-08T07:20:48.105Z,9.747588
2022-10-08T07:21:48.070Z,9.747475
2022-10-08T07:22:48.257Z,9.747429
2022-10-08T07:23:48.055Z,9.747374
2022-10-08T07:24:48.047Z,9.747419
2022-10-08T07:25:48.065Z,9.747381
2022-10-08T07:26:48.068Z,9.747423
2022-10-08T07:27:48.030Z,9.747422
2022-10-08T07:28:48.100Z,9.747346
2022-10-08T07:29:48.003Z,9.747367
2022-10-08T07:30:48.055Z,9.747379
2022-10-08T07:31:48.067Z,9.747349
2022-10-08T07:32:48.305Z,9.747422
2022-10-08T07:33:47.986Z,9.747399
2022-10-08T07:34:47.970Z,9.747372
2022-10-08T07:35:47.986Z,9.747354
2022-10-08T07:36:47.961Z,9.747374
2022-10-08T07:37:47.945Z,9.747306
2022-10-08T07:38:47.943Z,9.747359
2022-10-08T07:39:47.930Z,9.747512
2022-10-08T07:40:47.950Z,9.747318
2022-10-08T07:41:47.918Z,9.747185
2022-10-08T07:42:48.312Z,9.747281
2022-10-08T07:43:47.891Z,9.747478
2022-10-08T07:44:47.890Z,9.747339
2022-10-08T07:45:47.925Z,9.747396
2022-10-08T07:46:47.894Z,9.747427
2022-10-08T07:47:47.866Z,9.747451
2022-10-08T07:48:47.873Z,9.747426
2022-10-08T07:49:47.859Z,9.747313
2022-10-08T07:50:47.919Z,9.747420
2022-10-08T07:51:47.833Z,9.747377
2022-10-08T07:52:48.139Z,9.747450
2022-10-08T07:53:47.817Z,9.747331
2022-10-08T07:54:47.815Z,9.747387
2022-10-08T07:55:47.829Z,9.747516
2022-10-08T07:56:47.820Z,9.747409
2022-10-08T07:57:47.785Z,9.747388
2022-10-08T07:58:47.786Z,9.747448
2022-10-08T07:59:47.782Z,9.747425
2022-10-08T08:00:47.860Z,9.747441
2022-10-08T08:01:47.794Z,9.747380
2022-10-08T08:02:48.013Z,9.747448
2022-10-08T08:03:47.742Z,9.747422
2022-10-08T08:04:47.741Z,9.747446
2022-10-08T08:05:47.817Z,9.747346
2022-10-08T08:06:47.733Z,9.747322
2022-10-08T08:07:53.033Z,9.747389
2022-10-08T08:08:49.705Z,9.747387
2022-10-08T08:09:47.709Z,9.747417
2022-10-08T08:10:47.718Z,9.747328
2022-10-08T08:11:47.717Z,9.747397
2022-10-08T08:12:47.971Z,9.747458
2022-10-08T08:13:47.677Z,9.747408
2022-10-08T08:14:47.661Z,9.747370
2022-10-08T08:15:47.650Z,9.747481
2022-10-08T08:16:47.796Z,9.747476
2022-10-08T08:17:47.656Z,9.747541
2022-10-08T08:18:47.631Z,9.747480
2022-10-08T08:19:47.624Z,9.747446
2022-10-08T08:20:47.613Z,9.747362
2022-10-08T08:21:47.639Z,9.747366
2022-10-08T08:22:47.902Z,9.747332
2022-10-08T08:23:47.583Z,9.747435
2022-10-08T08:24:47.583Z,9.747435
2022-10-08T08:25:47.581Z,9.747455
2022-10-08T08:26:47.608Z,9.747495
2022-10-08T08:27:47.554Z,9.747444
2022-10-08T08:28:47.638Z,9.747438
2022-10-08T08:29:47.544Z,9.747437
2022-10-08T08:30:47.560Z,9.747477
2022-10-08T08:31:47.607Z,9.747464
2022-10-08T08:32:47.744Z,9.747427
2022-10-08T08:33:47.513Z,9.747479
2022-10-08T08:34:47.558Z,9.747450
2022-10-08T08:35:47.507Z,9.747327
2022-10-08T08:36:47.515Z,9.747517
2022-10-08T08:37:47.494Z,9.747461
2022-10-08T08:38:47.474Z,9.747457
2022-10-08T08:39:47.473Z,9.747479
2022-10-08T08:40:47.470Z,9.747475
2022-10-08T08:41:47.475Z,9.747453
2022-10-08T08:42:47.634Z,9.747464
2022-10-08T08:43:47.452Z,9.747470
2022-10-08T08:44:47.429Z,9.747453
2022-10-08T08:45:47.871Z,9.747491
2022-10-08T08:46:48.452Z,9.747375
2022-10-08T08:47:47.401Z,9.747469
2022-10-08T08:48:47.405Z,9.747452
2022-10-08T08:49:47.384Z,9.747501
2022-10-08T08:50:48.892Z,9.747445
2022-10-08T08:51:48.423Z,9.747352
2022-10-08T08:52:47.653Z,9.747396
2022-10-08T08:53:47.371Z,9.747384
2022-10-08T08:54:47.354Z,9.747409
2022-10-08T08:55:47.340Z,9.747414
2022-10-08T08:56:47.358Z,9.747378
2022-10-08T08:57:47.326Z,9.747478
2022-10-08T08:58:47.316Z,9.747609
2022-10-08T08:59:47.313Z,9.747527
2022-10-08T09:00:47.385Z,9.747457
2022-10-08T09:01:47.317Z,9.747411
2022-10-08T09:02:47.567Z,9.747381
2022-10-08T09:03:47.276Z,9.747375
2022-10-08T09:04:47.281Z,9.747222
2022-10-08T09:05:47.310Z,9.747215
2022-10-08T09:06:47.279Z,9.747321
2022-10-08T09:07:47.240Z,9.747253
2022-10-08T09:08:47.234Z,9.747249
2022-10-08T09:09:47.232Z,9.747334
2022-10-08T09:10:47.216Z,9.747281
2022-10-08T09:11:47.245Z,9.747329
2022-10-08T09:12:47.458Z,9.747260
2022-10-08T09:13:47.193Z,9.747304
2022-10-08T09:14:47.182Z,9.747257
2022-10-08T09:15:47.179Z,9.747249
2022-10-08T09:16:47.217Z,9.747373
2022-10-08T09:17:47.194Z,9.747387
2022-10-08T09:18:47.155Z,9.747490
2022-10-08T09:19:47.156Z,9.747290
2022-10-08T09:20:47.172Z,9.747180
2022-10-08T09:21:47.133Z,9.747347
2022-10-08T09:22:47.408Z,9.747284
2022-10-08T09:23:47.123Z,9.747379
2022-10-08T09:24:47.105Z,9.747334
2022-10-08T09:25:47.103Z,9.747273
2022-10-08T09:26:47.115Z,9.747279
2022-10-08T09:27:47.182Z,9.747440
2022-10-08T09:28:47.175Z,9.747253
2022-10-08T09:29:47.068Z,9.747334
2022-10-08T09:30:47.133Z,9.747339
2022-10-08T09:31:47.096Z,9.747375
2022-10-08T09:32:47.432Z,9.747312
2022-10-08T09:33:47.093Z,9.747229
2022-10-08T09:34:47.071Z,9.747194
2022-10-08T09:35:47.050Z,9.747338
2022-10-08T09:36:47.047Z,9.747492
2022-10-08T09:37:47.070Z,9.747381
2022-10-08T09:38:47.031Z,9.747308
2022-10-08T09:39:47.959Z,9.747220
2022-10-08T09:40:47.881Z,9.747490
2022-10-08T09:41:46.994Z,9.747366
2022-10-08T09:42:47.294Z,9.747250
2022-10-08T09:43:47.010Z,9.747362
2022-10-08T09:44:47.007Z,9.747613
2022-10-08T09:45:47.006Z,9.747600
2022-10-08T09:46:46.977Z,9.747506
2022-10-08T09:47:47.013Z,9.747450
2022-10-08T09:48:46.962Z,9.747276
2022-10-08T09:49:46.953Z,9.747194
2022-10-08T09:50:46.937Z,9.747202
2022-10-08T09:51:46.928Z,9.747160
2022-10-08T09:52:47.145Z,9.747108
2022-10-08T09:53:46.913Z,9.747189
2022-10-08T09:54:46.910Z,9.747103
2022-10-08T09:55:46.905Z,9.747209
2022-10-08T09:56:46.859Z,9.747275
2022-10-08T09:57:46.924Z,9.747247
2022-10-08T09:58:46.879Z,9.747271
2022-10-08T09:59:46.838Z,9.747300
2022-10-08T10:00:46.873Z,9.747270
2022-10-08T10:01:46.942Z,9.747231
2022-10-08T10:03:12.760Z,9.747247
2022-10-08T10:03:46.856Z,9.747333
2022-10-08T10:04:46.808Z,9.747407
2022-10-08T10:05:46.976Z,9.747325
2022-10-08T10:06:46.779Z,9.747267
2022-10-08T10:07:46.790Z,9.747345
2022-10-08T10:08:46.761Z,9.747337
2022-10-08T10:09:46.802Z,9.747281
2022-10-08T10:10:46.749Z,9.747362
2022-10-08T10:11:46.773Z,9.747363
2022-10-08T10:12:46.965Z,9.747330
2022-10-08T10:13:46.743Z,9.747336
2022-10-08T10:14:46.729Z,9.747202
2022-10-08T10:15:46.825Z,9.747223
2022-10-08T10:16:46.875Z,9.747392
2022-10-08T10:17:46.718Z,9.747282
2022-10-08T10:18:46.683Z,9.747384
2022-10-08T10:19:46.846Z,9.747446
2022-10-08T10:20:46.660Z,9.747419
2022-10-08T10:21:46.746Z,9.747457
2022-10-08T10:22:47.951Z,9.747414
2022-10-08T10:23:46.658Z,9.747283
2022-10-08T10:24:46.632Z,9.747124
2022-10-08T10:25:46.633Z,9.747153
2022-10-08T10:26:46.616Z,9.747257
2022-10-08T10:27:46.822Z,9.747277
2022-10-08T10:28:46.647Z,9.747205
2022-10-08T10:29:46.600Z,9.747148
2022-10-08T10:30:46.628Z,9.747182
2022-10-08T10:31:46.582Z,9.747350
2022-10-08T10:32:46.887Z,9.747287
2022-10-08T10:33:46.565Z,9.747337
2022-10-08T10:34:46.561Z,9.747291
2022-10-08T10:35:46.562Z,9.747575
2022-10-08T10:36:46.558Z,9.747382
2022-10-08T10:37:46.563Z,9.747462
2022-10-08T10:38:46.527Z,9.747308
2022-10-08T10:39:46.518Z,9.747375
2022-10-08T10:40:46.504Z,9.747441
2022-10-08T10:41:46.509Z,9.747274
2022-10-08T10:42:46.758Z,9.747356
2022-10-08T10:43:46.487Z,9.747497
2022-10-08T10:44:46.481Z,9.747469
2022-10-08T10:45:46.520Z,9.747398
2022-10-08T10:46:46.463Z,9.747432
2022-10-08T10:47:46.483Z,9.747493
2022-10-08T10:48:46.566Z,9.747589
2022-10-08T10:49:46.440Z,9.747461
2022-10-08T10:50:46.442Z,9.747274
2022-10-08T10:51:46.431Z,9.747493
2022-10-08T10:52:46.774Z,9.747397
2022-10-08T10:53:46.409Z,9.747365
2022-10-08T10:54:46.516Z,9.747456
2022-10-08T10:55:47.279Z,9.747430
2022-10-08T10:56:46.393Z,9.747462
2022-10-08T10:57:46.413Z,9.747557
2022-10-08T10:58:46.376Z,9.747500
2022-10-08T10:59:46.579Z,9.747517
2022-10-08T11:00:46.360Z,9.747733
2022-10-08T11:01:46.412Z,9.747623
2022-10-08T11:02:47.036Z,9.747471
2022-10-08T11:03:46.400Z,9.747582
2022-10-08T11:04:46.396Z,9.747560
2022-10-08T11:05:46.322Z,9.747481
2022-10-08T11:06:46.321Z,9.747506
2022-10-08T11:07:46.303Z,9.747486
2022-10-08T11:08:46.334Z,9.747473
2022-10-08T11:09:46.834Z,9.747466
2022-10-08T11:10:46.287Z,9.747398
2022-10-08T11:11:46.272Z,9.747436
2022-10-08T11:12:46.611Z,9.747448
2022-10-08T11:13:46.287Z,9.747505
2022-10-08T11:14:46.251Z,9.747258
2022-10-08T11:15:46.309Z,9.747397
2022-10-08T11:16:46.238Z,9.747434
2022-10-08T11:17:46.227Z,9.747508
2022-10-08T11:18:46.241Z,9.747495
2022-10-08T11:19:46.215Z,9.747479
2022-10-08T11:20:46.204Z,9.747524
2022-10-08T11:21:46.196Z,9.747490
2022-10-08T11:22:46.537Z,9.747504
2022-10-08T11:23:46.185Z,9.747471
2022-10-08T11:24:46.173Z,9.747487
2022-10-08T11:26:14.948Z,9.747601
2022-10-08T11:26:48.163Z,9.747454
2022-10-08T11:27:46.718Z,9.747533
2022-10-08T11:28:46.185Z,9.747445
2022-10-08T11:29:46.142Z,9.747448
2022-10-08T11:30:46.234Z,9.747558
2022-10-08T11:31:46.123Z,9.747602
2022-10-08T11:32:46.516Z,9.747595
2022-10-08T11:33:46.111Z,9.747567
2022-10-08T11:34:46.098Z,9.747482
2022-10-08T11:35:46.088Z,9.747413
2022-10-08T11:36:46.076Z,9.747427
2022-10-08T11:37:46.103Z,9.747449
2022-10-08T11:38:46.060Z,9.747510
2022-10-08T11:39:46.057Z,9.747583
2022-10-08T11:40:46.046Z,9.747590
2022-10-08T11:41:46.043Z,9.747481
2022-10-08T11:42:48.919Z,9.747431
2022-10-08T11:43:47.030Z,9.747476
2022-10-08T11:44:46.024Z,9.747411
2022-10-08T11:45:46.063Z,9.747418
2022-10-08T11:46:46.006Z,9.747567
2022-10-08T11:47:46.024Z,9.747356
2022-10-08T11:48:45.985Z,9.747407
2022-10-08T11:49:45.981Z,9.747541
2022-10-08T11:50:45.970Z,9.747486